Time;durP1;ratioP1;P1;durP2;ratioP2;P2;SDS_P1;SDS_P2;PMS_P1;PMS_P2;Temp;Humidity;BMP_temperature;BMP_pressure;BME280_temperature;BME280_humidity;BME280_pressure;Samples;Min_cycle;Max_cycle;Signal;HPM_P1;HPM_P2
2023/09/05 00:02:53;;;;;;;12.55;7.85;;;;;;;;;;6188160;28;20148;-59
2023/09/05 00:06:00;;;;;;;13.20;8.15;;;;;;;;;;6185323;28;20153;-58
2023/09/05 00:09:01;;;;;;;13.38;8.00;;;;;;;;;;6187267;28;20070;-57
2023/09/05 00:12:03;;;;;;;12.80;7.90;;;;;;;;;;6187895;28;20049;-59
2023/09/05 00:15:04;;;;;;;13.82;8.68;;;;;;;;;;6164701;28;20046;-59
2023/09/05 00:18:05;;;;;;;11.60;8.03;;;;;;;;;;6199164;28;20710;-58
2023/09/05 00:21:07;;;;;;;15.55;8.20;;;;;;;;;;6185991;28;20086;-59
2023/09/05 00:24:28;;;;;;;13.73;8.15;;;;;;;;;;6185638;28;20140;-59
2023/09/05 00:27:28;;;;;;;13.68;7.82;;;;;;;;;;6183881;28;20629;-57
2023/09/05 00:30:31;;;;;;;14.40;8.15;;;;;;;;;;6185529;28;20050;-59
2023/09/05 00:33:31;;;;;;;17.08;8.93;;;;;;;;;;6183343;28;20080;-60
2023/09/05 00:36:32;;;;;;;14.80;7.78;;;;;;;;;;6182477;28;20042;-60
2023/09/05 00:39:33;;;;;;;13.63;7.78;;;;;;;;;;6184853;28;20038;-58
2023/09/05 00:42:34;;;;;;;14.00;7.65;;;;;;;;;;6185492;28;20056;-58
2023/09/05 00:45:34;;;;;;;14.23;7.40;;;;;;;;;;6186708;28;20520;-58
2023/09/05 00:48:37;;;;;;;14.13;8.15;;;;;;;;;;6186034;28;20046;-57
2023/09/05 00:51:37;;;;;;;15.38;8.02;;;;;;;;;;6187637;28;20496;-59
2023/09/05 00:54:40;;;;;;;12.52;7.97;;;;;;;;;;6183944;28;20054;-59
2023/09/05 00:57:41;;;;;;;14.68;8.63;;;;;;;;;;6180986;28;20046;-57
2023/09/05 01:00:42;;;;;;;13.38;8.88;;;;;;;;;;6185114;28;20097;-58
2023/09/05 01:03:42;;;;;;;14.63;8.40;;;;;;;;;;6185995;28;20393;-59
2023/09/05 01:07:23;;;;;;;14.50;7.90;;;;;;;;;;6182905;28;20045;-58
2023/09/05 01:10:55;;;;;;;13.65;7.78;;;;;;;;;;6173536;28;20054;-58
2023/09/05 01:13:56;;;;;;;17.05;8.07;;;;;;;;;;6186086;28;20054;-58
2023/09/05 01:17:01;;;;;;;15.35;7.75;;;;;;;;;;6186942;28;20441;-58
2023/09/05 01:20:03;;;;;;;13.73;8.30;;;;;;;;;;6185303;28;20077;-56
2023/09/05 01:23:13;;;;;;;17.40;8.82;;;;;;;;;;6187550;28;20420;-58
2023/09/05 01:26:14;;;;;;;13.98;8.38;;;;;;;;;;6187020;28;20121;-58
2023/09/05 01:29:17;;;;;;;13.93;8.00;;;;;;;;;;6188232;28;20050;-59
2023/09/05 01:32:20;;;;;;;18.00;8.85;;;;;;;;;;6189496;28;20042;-56
2023/09/05 01:35:20;;;;;;;13.75;8.35;;;;;;;;;;6189711;28;20104;-58
2023/09/05 01:38:21;;;;;;;12.50;8.15;;;;;;;;;;6194982;28;20501;-59
2023/09/05 01:41:22;;;;;;;12.85;7.78;;;;;;;;;;6188941;28;20038;-59
2023/09/05 01:44:22;;;;;;;16.08;8.25;;;;;;;;;;6187566;28;20073;-57
2023/09/05 01:47:23;;;;;;;14.25;7.28;;;;;;;;;;6188659;28;20539;-57
2023/09/05 01:50:23;;;;;;;12.57;7.65;;;;;;;;;;6184118;28;20074;-58
2023/09/05 01:53:24;;;;;;;13.32;7.65;;;;;;;;;;6187949;28;20520;-58
2023/09/05 01:56:25;;;;;;;14.35;8.30;;;;;;;;;;6189858;28;20049;-58
2023/09/05 01:59:25;;;;;;;13.80;7.85;;;;;;;;;;6191667;28;20068;-58
2023/09/05 02:02:26;;;;;;;15.27;7.90;;;;;;;;;;6188396;28;20047;-57
2023/09/05 02:05:26;;;;;;;21.60;8.02;;;;;;;;;;6188097;28;20046;-58
2023/09/05 02:08:27;;;;;;;19.55;8.70;;;;;;;;;;6185080;28;20046;-56
2023/09/05 02:11:28;;;;;;;13.45;7.57;;;;;;;;;;6185978;28;20039;-58
2023/09/05 02:14:28;;;;;;;14.40;7.70;;;;;;;;;;6190194;28;20066;-57
2023/09/05 02:17:33;;;;;;;12.80;7.22;;;;;;;;;;6189893;28;20457;-57
2023/09/05 02:20:33;;;;;;;11.95;7.57;;;;;;;;;;6185271;28;20585;-59
2023/09/05 02:23:34;;;;;;;12.90;7.18;;;;;;;;;;6188765;28;20046;-59
2023/09/05 02:26:35;;;;;;;12.95;7.57;;;;;;;;;;6188237;28;21568;-58
2023/09/05 02:29:35;;;;;;;13.32;7.80;;;;;;;;;;6183267;28;20046;-59
2023/09/05 02:32:36;;;;;;;14.25;8.25;;;;;;;;;;6184233;28;20051;-58
2023/09/05 02:35:36;;;;;;;16.73;7.55;;;;;;;;;;6188398;28;20042;-60
2023/09/05 02:38:37;;;;;;;15.30;8.15;;;;;;;;;;6187935;28;21008;-60
2023/09/05 02:41:37;;;;;;;14.75;7.95;;;;;;;;;;6185815;28;20054;-58
2023/09/05 02:44:38;;;;;;;16.45;8.50;;;;;;;;;;6193551;28;20053;-59
2023/09/05 02:47:39;;;;;;;14.32;7.22;;;;;;;;;;6189778;28;20120;-59
2023/09/05 02:50:40;;;;;;;13.20;8.10;;;;;;;;;;6186472;28;20042;-57
2023/09/05 02:53:41;;;;;;;14.07;8.00;;;;;;;;;;6188513;28;20058;-58
2023/09/05 02:56:41;;;;;;;13.00;7.70;;;;;;;;;;6191783;28;20133;-58
2023/09/05 02:59:42;;;;;;;14.18;8.00;;;;;;;;;;6189609;28;20496;-58
2023/09/05 03:02:43;;;;;;;14.85;7.50;;;;;;;;;;6191480;28;20231;-57
2023/09/05 03:05:44;;;;;;;19.27;7.80;;;;;;;;;;6191466;28;20449;-58
2023/09/05 03:08:46;;;;;;;13.07;8.15;;;;;;;;;;6187727;28;20137;-58
2023/09/05 03:11:46;;;;;;;14.18;7.43;;;;;;;;;;6190941;28;20556;-59
2023/09/05 03:14:47;;;;;;;14.82;8.10;;;;;;;;;;6191338;28;20050;-59
2023/09/05 03:17:47;;;;;;;13.23;7.22;;;;;;;;;;6189251;28;20091;-59
2023/09/05 03:20:48;;;;;;;13.18;7.45;;;;;;;;;;6186538;28;20486;-58
2023/09/05 03:23:49;;;;;;;14.63;7.80;;;;;;;;;;6186783;28;20489;-59
2023/09/05 03:26:49;;;;;;;14.70;8.27;;;;;;;;;;6188797;28;20043;-58
2023/09/05 03:29:50;;;;;;;12.25;7.75;;;;;;;;;;6188176;28;20579;-58
2023/09/05 03:32:50;;;;;;;16.42;8.32;;;;;;;;;;6191590;28;20053;-58
2023/09/05 03:35:51;;;;;;;12.88;7.15;;;;;;;;;;6184571;28;20573;-58
2023/09/05 03:38:52;;;;;;;14.75;7.45;;;;;;;;;;6188230;28;20057;-56
2023/09/05 03:41:52;;;;;;;15.35;7.70;;;;;;;;;;6185760;28;20409;-59
2023/09/05 03:44:53;;;;;;;17.98;8.52;;;;;;;;;;6185743;28;20438;-59
2023/09/05 03:47:54;;;;;;;15.88;7.78;;;;;;;;;;6188070;28;20177;-59
2023/09/05 03:50:54;;;;;;;16.48;7.32;;;;;;;;;;6189624;28;20042;-59
2023/09/05 03:53:58;;;;;;;13.80;7.35;;;;;;;;;;6188797;28;20066;-60
2023/09/05 03:56:58;;;;;;;14.55;8.13;;;;;;;;;;6190374;28;20042;-58
2023/09/05 03:59:59;;;;;;;14.35;8.20;;;;;;;;;;6185760;28;20054;-59
2023/09/05 04:03:02;;;;;;;12.52;8.07;;;;;;;;;;6186014;28;20046;-56
2023/09/05 04:06:03;;;;;;;15.38;8.15;;;;;;;;;;6186352;28;20049;-58
2023/09/05 04:09:03;;;;;;;14.10;7.40;;;;;;;;;;6184655;28;20046;-59
2023/09/05 04:12:04;;;;;;;13.05;7.80;;;;;;;;;;6185746;28;20042;-58
2023/09/05 04:15:05;;;;;;;15.13;8.43;;;;;;;;;;6184324;28;20046;-57
2023/09/05 04:18:06;;;;;;;16.88;8.30;;;;;;;;;;6183266;28;20530;-59
2023/09/05 04:21:07;;;;;;;14.98;7.68;;;;;;;;;;6186122;28;20092;-59
2023/09/05 04:24:08;;;;;;;16.58;8.05;;;;;;;;;;6189170;28;20561;-59
2023/09/05 04:27:09;;;;;;;14.27;7.88;;;;;;;;;;6186333;28;20039;-59
2023/09/05 04:30:12;;;;;;;13.70;7.55;;;;;;;;;;6185288;28;20051;-60
2023/09/05 04:33:13;;;;;;;15.32;7.47;;;;;;;;;;6184152;28;20065;-56
2023/09/05 04:36:14;;;;;;;13.40;7.47;;;;;;;;;;6188274;28;20050;-57
2023/09/05 04:39:14;;;;;;;14.00;7.40;;;;;;;;;;6186411;28;20184;-59
2023/09/05 04:42:15;;;;;;;12.07;7.82;;;;;;;;;;6186362;28;20474;-58
2023/09/05 04:45:15;;;;;;;11.77;7.50;;;;;;;;;;6185880;28;20416;-59
2023/09/05 04:48:16;;;;;;;18.10;8.43;;;;;;;;;;6184367;28;20058;-58
2023/09/05 04:51:17;;;;;;;14.98;8.18;;;;;;;;;;6186184;28;20466;-58
2023/09/05 04:54:17;;;;;;;17.38;8.20;;;;;;;;;;6191565;28;20077;-58
2023/09/05 04:57:18;;;;;;;16.60;7.80;;;;;;;;;;6190205;28;20422;-57
2023/09/05 05:00:19;;;;;;;17.85;7.85;;;;;;;;;;6191552;28;20050;-58
2023/09/05 05:03:20;;;;;;;13.13;7.57;;;;;;;;;;6205084;28;20767;-58
2023/09/05 05:06:20;;;;;;;16.48;7.78;;;;;;;;;;6190168;28;20050;-59
2023/09/05 05:09:21;;;;;;;16.20;8.32;;;;;;;;;;6189035;28;20034;-57
2023/09/05 05:12:21;;;;;;;18.90;8.63;;;;;;;;;;6191584;28;20054;-59
2023/09/05 05:15:22;;;;;;;19.35;8.60;;;;;;;;;;6189640;28;20626;-60
2023/09/05 05:18:22;;;;;;;17.95;7.97;;;;;;;;;;6188865;28;20058;-57
2023/09/05 05:21:23;;;;;;;17.40;8.30;;;;;;;;;;6189841;28;20038;-58
2023/09/05 05:24:24;;;;;;;16.98;8.20;;;;;;;;;;6189847;28;20047;-58
2023/09/05 05:27:25;;;;;;;15.23;7.93;;;;;;;;;;6191168;28;20053;-59
2023/09/05 05:30:26;;;;;;;15.95;8.63;;;;;;;;;;6188736;28;20193;-59
2023/09/05 05:33:26;;;;;;;15.52;9.75;;;;;;;;;;6187851;28;20042;-58
2023/09/05 05:36:29;;;;;;;16.42;8.15;;;;;;;;;;6195158;28;20054;-59
2023/09/05 05:39:29;;;;;;;14.35;8.55;;;;;;;;;;6191205;28;20046;-59
2023/09/05 05:42:30;;;;;;;17.67;8.43;;;;;;;;;;6190928;28;20097;-59
2023/09/05 05:45:31;;;;;;;14.80;8.70;;;;;;;;;;6189674;28;20043;-59
2023/09/05 05:48:31;;;;;;;22.92;10.40;;;;;;;;;;6189286;28;20489;-59
2023/09/05 05:51:32;;;;;;;16.75;9.68;;;;;;;;;;6202873;28;20073;-60
2023/09/05 05:54:33;;;;;;;23.48;9.52;;;;;;;;;;6191871;28;20412;-58
2023/09/05 05:57:34;;;;;;;20.52;9.60;;;;;;;;;;6186665;28;20042;-59
2023/09/05 06:00:35;;;;;;;20.73;9.63;;;;;;;;;;6188732;28;20050;-59
2023/09/05 06:03:35;;;;;;;21.23;9.50;;;;;;;;;;6189266;28;20557;-59
2023/09/05 06:06:36;;;;;;;18.88;9.18;;;;;;;;;;6191690;28;20046;-61
2023/09/05 06:09:37;;;;;;;19.38;9.32;;;;;;;;;;6190290;28;20101;-59
2023/09/05 06:12:37;;;;;;;19.23;9.98;;;;;;;;;;6186435;28;20069;-60
2023/09/05 06:15:39;;;;;;;24.13;10.30;;;;;;;;;;6176714;28;20054;-60
2023/09/05 06:18:41;;;;;;;14.80;8.68;;;;;;;;;;6187788;28;20053;-58
2023/09/05 06:21:46;;;;;;;16.63;8.20;;;;;;;;;;6182497;28;20066;-59
2023/09/05 06:24:47;;;;;;;15.65;8.80;;;;;;;;;;6182102;28;20050;-60
2023/09/05 06:27:47;;;;;;;13.98;7.88;;;;;;;;;;6178125;28;21061;-60
2023/09/05 06:30:48;;;;;;;17.50;8.80;;;;;;;;;;6178964;28;20500;-59
2023/09/05 06:33:49;;;;;;;14.65;8.38;;;;;;;;;;6180333;28;20148;-57
2023/09/05 06:36:51;;;;;;;18.02;9.13;;;;;;;;;;6179741;28;20050;-60
2023/09/05 06:39:52;;;;;;;15.18;8.40;;;;;;;;;;6186938;28;20049;-60
2023/09/05 06:42:52;;;;;;;21.33;9.18;;;;;;;;;;6188504;28;20429;-58
2023/09/05 06:46:06;;;;;;;16.20;8.60;;;;;;;;;;6188339;28;20046;-60
2023/09/05 06:49:07;;;;;;;21.40;9.40;;;;;;;;;;6187415;28;20058;-60
2023/09/05 06:52:08;;;;;;;21.00;9.55;;;;;;;;;;6188232;28;20050;-59
2023/09/05 06:55:08;;;;;;;19.10;9.15;;;;;;;;;;6184055;28;20484;-59
2023/09/05 06:58:09;;;;;;;19.77;9.30;;;;;;;;;;6184718;28;20174;-59
2023/09/05 07:01:09;;;;;;;23.80;9.93;;;;;;;;;;6186185;28;20505;-59
2023/09/05 07:04:11;;;;;;;19.55;9.45;;;;;;;;;;6187026;28;20042;-60
2023/09/05 07:07:11;;;;;;;19.90;9.93;;;;;;;;;;6187891;28;20049;-59
2023/09/05 07:10:13;;;;;;;20.63;9.63;;;;;;;;;;6188919;28;20490;-59
2023/09/05 07:13:14;;;;;;;21.08;10.07;;;;;;;;;;6188714;28;20042;-59
2023/09/05 07:16:14;;;;;;;21.83;10.43;;;;;;;;;;6186502;28;20058;-60
2023/09/05 07:19:17;;;;;;;18.15;10.27;;;;;;;;;;6182966;28;20053;-60
2023/09/05 07:22:17;;;;;;;19.23;10.02;;;;;;;;;;6184566;28;20038;-59
2023/09/05 07:25:18;;;;;;;16.15;9.15;;;;;;;;;;6185647;28;20449;-60
2023/09/05 07:28:19;;;;;;;21.13;10.23;;;;;;;;;;6188580;28;20056;-60
2023/09/05 07:31:19;;;;;;;21.80;9.68;;;;;;;;;;6188489;28;20054;-59
2023/09/05 07:34:20;;;;;;;17.15;8.57;;;;;;;;;;6186918;28;20057;-59
2023/09/05 07:37:20;;;;;;;17.80;8.50;;;;;;;;;;6187968;28;20047;-59
2023/09/05 07:40:22;;;;;;;19.40;8.52;;;;;;;;;;6188488;28;20078;-59
2023/09/05 07:43:23;;;;;;;16.45;8.68;;;;;;;;;;6188874;28;20068;-59
2023/09/05 07:46:24;;;;;;;14.73;8.73;;;;;;;;;;6191186;28;20057;-59
2023/09/05 07:49:26;;;;;;;18.17;8.88;;;;;;;;;;6184690;28;20054;-60
2023/09/05 07:52:27;;;;;;;17.88;9.00;;;;;;;;;;6185954;28;20129;-59
2023/09/05 07:55:27;;;;;;;15.55;8.27;;;;;;;;;;6186474;28;21498;-58
2023/09/05 07:58:28;;;;;;;12.50;7.30;;;;;;;;;;6185714;28;20054;-59
2023/09/05 08:01:29;;;;;;;15.03;7.47;;;;;;;;;;6186453;28;20045;-58
2023/09/05 08:04:29;;;;;;;13.55;7.43;;;;;;;;;;6185746;28;20057;-59
2023/09/05 08:07:31;;;;;;;13.77;7.43;;;;;;;;;;6186321;28;20502;-59
2023/09/05 08:10:33;;;;;;;12.27;7.32;;;;;;;;;;6186358;28;20092;-59
2023/09/05 08:13:34;;;;;;;19.35;8.80;;;;;;;;;;6185470;28;20050;-59
2023/09/05 08:16:34;;;;;;;14.90;7.40;;;;;;;;;;6191149;28;20081;-59
2023/09/05 08:19:35;;;;;;;11.57;7.60;;;;;;;;;;6187699;28;20043;-59
2023/09/05 08:22:36;;;;;;;14.90;7.05;;;;;;;;;;6186520;28;20074;-58
2023/09/05 08:25:37;;;;;;;14.77;7.30;;;;;;;;;;6186707;28;20118;-60
2023/09/05 08:28:42;;;;;;;14.07;6.40;;;;;;;;;;6181784;28;20101;-56
2023/09/05 08:31:44;;;;;;;11.88;6.20;;;;;;;;;;6184387;28;20048;-59
2023/09/05 08:34:45;;;;;;;9.77;6.43;;;;;;;;;;6185139;28;20054;-60
2023/09/05 08:37:45;;;;;;;9.87;5.50;;;;;;;;;;6184437;28;20425;-58
2023/09/05 08:40:46;;;;;;;11.53;6.30;;;;;;;;;;6186161;28;20038;-60
2023/09/05 08:43:47;;;;;;;9.67;5.47;;;;;;;;;;6187986;28;20096;-59
2023/09/05 08:46:50;;;;;;;8.47;5.50;;;;;;;;;;6185591;28;20070;-60
2023/09/05 08:49:50;;;;;;;8.88;4.85;;;;;;;;;;6184450;28;20401;-59
2023/09/05 08:52:52;;;;;;;8.33;4.83;;;;;;;;;;6183884;28;20149;-60
2023/09/05 08:55:53;;;;;;;;;;;;;;;;;;6184130;28;20078;-60
2023/09/05 09:03:08;;;;;;;8.63;4.85;;;;;;;;;;6241065;28;20466;-59
2023/09/05 09:06:09;;;;;;;9.35;5.00;;;;;;;;;;6245206;28;20048;-60
2023/09/05 09:09:34;;;;;;;9.33;4.90;;;;;;;;;;6246713;28;20623;-60
2023/09/05 09:12:35;;;;;;;10.70;5.10;;;;;;;;;;6246169;28;20049;-60
2023/09/05 09:15:39;;;;;;;9.00;5.10;;;;;;;;;;6247399;28;20076;-58
2023/09/05 09:18:41;;;;;;;8.13;4.88;;;;;;;;;;6245358;28;20106;-60
2023/09/05 09:21:42;;;;;;;8.35;4.78;;;;;;;;;;6244970;28;20056;-60
2023/09/05 09:24:45;;;;;;;8.10;4.57;;;;;;;;;;6247650;28;20048;-60
2023/09/05 09:27:57;;;;;;;10.35;5.15;;;;;;;;;;6245020;28;20038;-60
2023/09/05 09:30:58;;;;;;;;;;;;;;;;;;6244915;28;20053;-60
2023/09/05 09:34:00;;;;;;;8.60;5.15;;;;;;;;;;6247271;28;19928;-59
2023/09/05 09:37:00;;;;;;;7.63;4.30;;;;;;;;;;6247884;28;20403;-59
2023/09/05 09:40:06;;;;;;;6.77;3.90;;;;;;;;;;6250054;28;20045;-59
2023/09/05 09:43:08;;;;;;;6.65;4.30;;;;;;;;;;6248377;28;20044;-60
2023/09/05 09:46:08;;;;;;;8.65;4.68;;;;;;;;;;6246192;28;20071;-60
2023/09/05 09:49:10;;;;;;;10.40;4.90;;;;;;;;;;6248305;28;20045;-59
2023/09/05 09:52:14;;;;;;;9.07;4.07;;;;;;;;;;6249424;28;20518;-60
2023/09/05 09:55:16;;;;;;;7.18;4.10;;;;;;;;;;6249414;28;20053;-60
2023/09/05 09:58:19;;;;;;;8.30;3.75;;;;;;;;;;6249966;28;20052;-58
2023/09/05 10:01:20;;;;;;;6.63;3.83;;;;;;;;;;6250658;28;20154;-59
2023/09/05 10:04:23;;;;;;;6.80;3.88;;;;;;;;;;6246997;28;20494;-56
2023/09/05 10:07:25;;;;;;;6.78;3.67;;;;;;;;;;6248353;28;20125;-59
2023/09/05 10:10:27;;;;;;;5.95;3.35;;;;;;;;;;6245902;28;20071;-58
2023/09/05 10:13:32;;;;;;;5.90;3.72;;;;;;;;;;6249701;28;20095;-60
2023/09/05 10:16:34;;;;;;;6.78;3.63;;;;;;;;;;6247909;28;20458;-59
2023/09/05 10:19:37;;;;;;;6.97;3.67;;;;;;;;;;6247078;28;20614;-58
2023/09/05 10:22:43;;;;;;;6.75;3.78;;;;;;;;;;6247094;28;20045;-60
2023/09/05 10:25:44;;;;;;;7.55;3.75;;;;;;;;;;6248397;28;20870;-60
2023/09/05 10:28:46;;;;;;;5.95;3.42;;;;;;;;;;6247209;28;20060;-59
2023/09/05 10:31:46;;;;;;;6.47;3.67;;;;;;;;;;6247446;28;20049;-59
2023/09/05 10:34:47;;;;;;;6.33;3.63;;;;;;;;;;6248424;28;20084;-59
2023/09/05 10:37:51;;;;;;;5.57;3.70;;;;;;;;;;6247980;28;20401;-59
2023/09/05 10:40:52;;;;;;;5.80;3.45;;;;;;;;;;6247705;28;20052;-59
2023/09/05 10:43:54;;;;;;;7.53;3.50;;;;;;;;;;6246471;28;20041;-60
2023/09/05 10:46:55;;;;;;;5.97;3.40;;;;;;;;;;6246759;28;20045;-60
2023/09/05 10:49:59;;;;;;;6.70;3.57;;;;;;;;;;6242121;28;20053;-60
2023/09/05 10:53:10;;;;;;;5.88;3.58;;;;;;;;;;6247316;28;20396;-59
2023/09/05 10:56:45;;;;;;;8.95;4.03;;;;;;;;;;6248954;28;20041;-58
2023/09/05 10:59:47;;;;;;;8.20;3.53;;;;;;;;;;6248527;28;20049;-58
2023/09/05 11:02:48;;;;;;;;;;;;;;;;;;6248539;28;20060;-60
2023/09/05 11:05:48;;;;;;;6.75;3.63;;;;;;;;;;6248936;28;20371;-60
2023/09/05 11:09:15;;;;;;;5.50;3.53;;;;;;;;;;6248979;28;20048;-59
2023/09/05 11:12:17;;;;;;;6.20;3.10;;;;;;;;;;6245385;28;20049;-60
2023/09/05 11:15:38;;;;;;;5.53;3.30;;;;;;;;;;6252698;28;20053;-60
2023/09/05 11:18:43;;;;;;;5.95;3.60;;;;;;;;;;6253603;28;20072;-60
2023/09/05 11:21:44;;;;;;;7.10;3.25;;;;;;;;;;6253775;28;20050;-59
2023/09/05 11:24:47;;;;;;;9.00;3.53;;;;;;;;;;6258629;28;20078;-59
2023/09/05 11:27:48;;;;;;;8.10;3.75;;;;;;;;;;6257691;28;20558;-60
2023/09/05 11:30:52;;;;;;;7.78;3.20;;;;;;;;;;6256980;28;20504;-60
2023/09/05 11:33:53;;;;;;;6.32;3.60;;;;;;;;;;6254950;28;20134;-59
2023/09/05 11:36:54;;;;;;;6.13;3.00;;;;;;;;;;6255316;28;20439;-59
2023/09/05 11:39:54;;;;;;;5.83;3.40;;;;;;;;;;6256006;28;20045;-60
2023/09/05 11:43:09;;;;;;;6.00;3.70;;;;;;;;;;6255509;28;20055;-60
2023/09/05 11:46:10;;;;;;;5.95;3.33;;;;;;;;;;6255634;28;20147;-60
2023/09/05 11:49:11;;;;;;;6.97;3.70;;;;;;;;;;6254259;28;20090;-59
2023/09/05 11:52:12;;;;;;;6.00;3.73;;;;;;;;;;6248154;28;20442;-60
2023/09/05 11:55:13;;;;;;;7.00;3.53;;;;;;;;;;6260108;28;20040;-59
2023/09/05 11:58:16;;;;;;;6.32;3.70;;;;;;;;;;6259038;28;20052;-60
2023/09/05 12:01:29;;;;;;;7.03;3.63;;;;;;;;;;6266285;28;20061;-60
2023/09/05 12:04:34;;;;;;;5.22;3.42;;;;;;;;;;6247468;28;21113;-60
2023/09/05 12:07:34;;;;;;;5.97;3.60;;;;;;;;;;6245371;28;20052;-59
2023/09/05 12:10:40;;;;;;;6.43;3.87;;;;;;;;;;6243213;28;20507;-60
2023/09/05 12:13:43;;;;;;;7.28;3.80;;;;;;;;;;6245616;28;20045;-60
2023/09/05 12:16:47;;;;;;;6.90;3.45;;;;;;;;;;6245231;28;20068;-60
2023/09/05 12:19:49;;;;;;;7.88;4.03;;;;;;;;;;6243906;28;20045;-59
2023/09/05 12:22:49;;;;;;;;;;;;;;;;;;6247512;28;20810;-60
2023/09/05 12:25:54;;;;;;;6.13;3.15;;;;;;;;;;6243484;28;19966;-60
2023/09/05 12:28:58;;;;;;;6.85;3.90;;;;;;;;;;6244555;28;20041;-60
2023/09/05 12:31:58;;;;;;;7.82;3.90;;;;;;;;;;6246870;28;20071;-59
2023/09/05 12:34:59;;;;;;;7.10;3.47;;;;;;;;;;6244833;28;20057;-59
2023/09/05 12:38:04;;;;;;;6.80;3.67;;;;;;;;;;6245517;28;20055;-60
2023/09/05 12:41:04;;;;;;;6.60;3.55;;;;;;;;;;6247472;28;20033;-59
2023/09/05 12:44:06;;;;;;;7.70;3.80;;;;;;;;;;6246576;28;20920;-58
2023/09/05 12:47:08;;;;;;;;;;;;;;;;;;6243992;28;20046;-60
2023/09/05 12:50:15;;;;;;;7.82;3.88;;;;;;;;;;6243891;28;19921;-60
2023/09/05 12:53:17;;;;;;;5.28;3.42;;;;;;;;;;6243208;28;20105;-60
2023/09/05 12:56:18;;;;;;;6.47;4.05;;;;;;;;;;6242443;28;20049;-59
2023/09/05 12:59:21;;;;;;;9.38;4.57;;;;;;;;;;6246976;28;20052;-60
2023/09/05 13:02:23;;;;;;;10.85;4.57;;;;;;;;;;6243318;28;20136;-59
2023/09/05 13:05:23;;;;;;;6.80;4.30;;;;;;;;;;6243628;28;20401;-59
2023/09/05 13:08:25;;;;;;;9.20;4.18;;;;;;;;;;6243025;28;20326;-61
2023/09/05 13:11:26;;;;;;;8.13;4.60;;;;;;;;;;6255555;28;20424;-61
2023/09/05 13:14:27;;;;;;;8.63;4.15;;;;;;;;;;6246877;28;20303;-59
2023/09/05 13:17:28;;;;;;;7.47;4.23;;;;;;;;;;6250803;28;20094;-60
2023/09/05 13:20:29;;;;;;;10.63;4.50;;;;;;;;;;6250685;28;20051;-60
2023/09/05 13:23:29;;;;;;;7.70;3.90;;;;;;;;;;6251515;28;20041;-60
2023/09/05 13:26:32;;;;;;;8.00;4.40;;;;;;;;;;6246479;28;20045;-60
2023/09/05 13:29:36;;;;;;;8.18;4.65;;;;;;;;;;6248640;28;20040;-59
2023/09/05 13:32:37;;;;;;;9.70;5.47;;;;;;;;;;6249431;28;20451;-60
2023/09/05 13:35:38;;;;;;;7.40;4.73;;;;;;;;;;6251030;28;20052;-60
2023/09/05 13:38:38;;;;;;;8.55;4.32;;;;;;;;;;6251682;28;20370;-60
2023/09/05 13:41:39;;;;;;;9.40;4.70;;;;;;;;;;6250477;28;20048;-60
2023/09/05 13:44:39;;;;;;;8.90;4.50;;;;;;;;;;6249486;28;20045;-60
2023/09/05 13:47:42;;;;;;;10.40;4.90;;;;;;;;;;6249814;28;20049;-60
2023/09/05 13:50:43;;;;;;;8.35;4.63;;;;;;;;;;6250324;28;20043;-59
2023/09/05 13:53:43;;;;;;;8.77;4.67;;;;;;;;;;6249007;28;20045;-59
2023/09/05 13:56:44;;;;;;;6.57;4.35;;;;;;;;;;6250858;28;20534;-59
2023/09/05 13:59:45;;;;;;;10.07;5.00;;;;;;;;;;6250939;28;20045;-60
2023/09/05 14:02:47;;;;;;;9.20;4.63;;;;;;;;;;6248718;28;20476;-60
2023/09/05 14:05:48;;;;;;;9.10;4.75;;;;;;;;;;6251515;28;20045;-59
2023/09/05 14:08:49;;;;;;;9.02;4.80;;;;;;;;;;6250214;28;20049;-60
2023/09/05 14:11:51;;;;;;;8.70;4.13;;;;;;;;;;6249639;28;20073;-60
2023/09/05 14:14:51;;;;;;;10.45;5.07;;;;;;;;;;6250097;28;20053;-59
2023/09/05 14:17:52;;;;;;;11.93;4.70;;;;;;;;;;6249640;28;20460;-60
2023/09/05 14:20:53;;;;;;;8.07;4.43;;;;;;;;;;6250025;28;20033;-60
2023/09/05 14:23:53;;;;;;;7.80;4.23;;;;;;;;;;6249312;28;20049;-60
2023/09/05 14:26:54;;;;;;;9.37;4.83;;;;;;;;;;6245869;28;20180;-59
2023/09/05 14:29:55;;;;;;;9.20;4.67;;;;;;;;;;6248371;28;20053;-60
2023/09/05 14:32:56;;;;;;;;;;;;;;;;;;6247816;28;20041;-60
2023/09/05 14:35:59;;;;;;;9.03;4.40;;;;;;;;;;6248055;28;20186;-59
2023/09/05 14:38:59;;;;;;;7.55;4.32;;;;;;;;;;6249564;28;20063;-60
2023/09/05 14:42:00;;;;;;;7.47;4.17;;;;;;;;;;6249288;28;20050;-59
2023/09/05 14:45:00;;;;;;;8.33;4.57;;;;;;;;;;6249333;28;20504;-59
2023/09/05 14:48:02;;;;;;;7.43;4.53;;;;;;;;;;6251501;28;20100;-59
2023/09/05 14:51:03;;;;;;;8.90;5.60;;;;;;;;;;6246406;28;20514;-59
2023/09/05 14:54:04;;;;;;;13.70;5.43;;;;;;;;;;6246751;28;20492;-59
2023/09/05 14:57:05;;;;;;;13.63;5.40;;;;;;;;;;6246322;28;20558;-58
2023/09/05 15:00:09;;;;;;;11.53;5.23;;;;;;;;;;6242939;28;20076;-58
2023/09/05 15:03:09;;;;;;;11.18;5.50;;;;;;;;;;6248298;28;20782;-60
2023/09/05 15:06:10;;;;;;;9.63;4.77;;;;;;;;;;6255184;28;20884;-59
2023/09/05 15:09:13;;;;;;;8.63;4.90;;;;;;;;;;6265905;28;20053;-59
2023/09/05 15:12:14;;;;;;;8.73;4.80;;;;;;;;;;6262192;28;20357;-61
2023/09/05 15:15:14;;;;;;;7.03;4.40;;;;;;;;;;6257609;28;20491;-59
2023/09/05 15:18:15;;;;;;;12.37;5.37;;;;;;;;;;6267095;28;20075;-58
2023/09/05 15:21:17;;;;;;;9.57;5.47;;;;;;;;;;6266826;28;20071;-59
2023/09/05 15:24:18;;;;;;;10.98;5.35;;;;;;;;;;6266760;28;20084;-60
2023/09/05 15:27:19;;;;;;;9.57;4.90;;;;;;;;;;6266996;28;20052;-59
2023/09/05 15:30:19;;;;;;;9.60;5.10;;;;;;;;;;6267210;28;20053;-58
2023/09/05 15:33:20;;;;;;;12.43;5.40;;;;;;;;;;6266494;28;20061;-55
2023/09/05 15:36:20;;;;;;;10.80;5.57;;;;;;;;;;6267060;28;20408;-58
2023/09/05 15:39:21;;;;;;;10.47;5.53;;;;;;;;;;6266079;28;20059;-57
2023/09/05 15:42:22;;;;;;;8.50;4.87;;;;;;;;;;6266298;28;20065;-58
2023/09/05 15:45:23;;;;;;;11.70;5.40;;;;;;;;;;6267315;28;20411;-57
2023/09/05 15:48:23;;;;;;;9.23;5.23;;;;;;;;;;6262872;28;20048;-59
2023/09/05 15:51:24;;;;;;;10.93;5.60;;;;;;;;;;6258807;28;20052;-60
2023/09/05 15:54:30;;;;;;;10.95;5.88;;;;;;;;;;6265920;28;20494;-60
2023/09/05 15:57:30;;;;;;;11.25;5.60;;;;;;;;;;6266134;28;20117;-60
2023/09/05 16:00:31;;;;;;;10.57;5.53;;;;;;;;;;6259009;28;20041;-60
2023/09/05 16:03:32;;;;;;;10.40;5.72;;;;;;;;;;6244248;28;20049;-60
2023/09/05 16:06:33;;;;;;;12.63;6.55;;;;;;;;;;6244418;28;20045;-61
2023/09/05 16:09:33;;;;;;;10.30;5.67;;;;;;;;;;6268787;28;20059;-60
2023/09/05 16:12:36;;;;;;;12.80;5.67;;;;;;;;;;6266318;28;20420;-60
2023/09/05 16:15:37;;;;;;;12.63;5.20;;;;;;;;;;6266159;28;20048;-60
2023/09/05 16:18:38;;;;;;;10.93;5.27;;;;;;;;;;6252563;28;20045;-60
2023/09/05 16:21:39;;;;;;;10.75;5.68;;;;;;;;;;6259347;28;20088;-60
2023/09/05 16:24:39;;;;;;;10.27;5.83;;;;;;;;;;6243531;28;20453;-60
2023/09/05 16:27:40;;;;;;;12.20;6.10;;;;;;;;;;6240992;28;20484;-60
2023/09/05 16:30:40;;;;;;;12.77;6.30;;;;;;;;;;6240816;28;20076;-60
2023/09/05 16:33:42;;;;;;;11.93;6.03;;;;;;;;;;6245734;28;20052;-60
2023/09/05 16:36:42;;;;;;;;;;;;;;;;;;6244485;28;20468;-60
2023/09/05 16:39:43;;;;;;;13.13;6.40;;;;;;;;;;6243958;28;19940;-60
2023/09/05 16:42:44;;;;;;;11.00;5.77;;;;;;;;;;6247555;28;20492;-60
2023/09/05 16:45:48;;;;;;;10.73;6.30;;;;;;;;;;6240880;28;20084;-60
2023/09/05 16:48:49;;;;;;;12.55;6.25;;;;;;;;;;6243945;28;20045;-60
2023/09/05 16:51:50;;;;;;;13.43;6.23;;;;;;;;;;6260277;28;20586;-60
2023/09/05 16:54:50;;;;;;;17.93;6.93;;;;;;;;;;6264566;28;20056;-60
2023/09/05 16:57:51;;;;;;;26.40;9.50;;;;;;;;;;6260408;28;20519;-60
2023/09/05 17:00:51;;;;;;;34.73;14.20;;;;;;;;;;6245698;28;20067;-59
2023/09/05 17:03:52;;;;;;;12.33;6.27;;;;;;;;;;6245235;28;20049;-59
2023/09/05 17:06:56;;;;;;;10.82;5.75;;;;;;;;;;6245820;28;20045;-59
2023/09/05 17:09:59;;;;;;;12.15;5.57;;;;;;;;;;6252232;28;20049;-59
2023/09/05 17:13:02;;;;;;;13.77;5.80;;;;;;;;;;6255028;28;20079;-62
2023/09/05 17:16:03;;;;;;;15.40;6.90;;;;;;;;;;6246178;28;20037;-58
2023/09/05 17:19:04;;;;;;;15.10;8.30;;;;;;;;;;6244652;28;20038;-60
2023/09/05 17:22:04;;;;;;;14.87;8.87;;;;;;;;;;6259179;28;20037;-58
2023/09/05 17:25:05;;;;;;;23.97;13.87;;;;;;;;;;6273720;28;20453;-60
2023/09/05 17:28:06;;;;;;;21.40;12.70;;;;;;;;;;6270189;28;20064;-60
2023/09/05 17:31:07;;;;;;;23.80;13.27;;;;;;;;;;6268990;28;20412;-59
2023/09/05 17:34:07;;;;;;;19.25;11.80;;;;;;;;;;6265423;28;20048;-60
2023/09/05 17:37:10;;;;;;;20.37;11.97;;;;;;;;;;6279514;28;20045;-59
2023/09/05 17:40:11;;;;;;;19.85;10.20;;;;;;;;;;6269002;28;20476;-60
2023/09/05 17:43:12;;;;;;;18.98;7.80;;;;;;;;;;6265016;28;20488;-60
2023/09/05 17:46:13;;;;;;;16.10;6.40;;;;;;;;;;6269055;28;20503;-59
2023/09/05 17:49:14;;;;;;;12.63;7.10;;;;;;;;;;6260615;28;20038;-59
2023/09/05 17:52:15;;;;;;;14.30;7.82;;;;;;;;;;6248859;28;20064;-59
2023/09/05 17:55:15;;;;;;;14.90;7.30;;;;;;;;;;6250230;28;20057;-60
2023/09/05 17:58:16;;;;;;;15.83;7.57;;;;;;;;;;6258441;28;20045;-60
2023/09/05 18:01:19;;;;;;;11.90;7.10;;;;;;;;;;6251433;28;20053;-59
2023/09/05 18:04:20;;;;;;;15.70;7.50;;;;;;;;;;6249264;28;20436;-60
2023/09/05 18:07:22;;;;;;;13.83;7.77;;;;;;;;;;6246033;28;20083;-59